createdAt,value
2019-05-02T00:01:53.468Z,94.20
2019-05-02T00:04:59.326Z,94.40
2019-05-02T00:08:04.322Z,94.80
2019-05-02T00:11:10.609Z,94.40
2019-05-02T00:14:15.769Z,94.40
2019-05-02T00:17:25.657Z,94.30
2019-05-02T00:20:29.262Z,94.50
2019-05-02T00:23:34.182Z,94.40
2019-05-02T00:26:39.194Z,94.40
2019-05-02T00:29:44.184Z,94.60
2019-05-02T00:32:53.220Z,94.70
2019-05-02T00:35:55.872Z,94.90
2019-05-02T00:39:00.877Z,95.00
2019-05-02T00:42:12.367Z,95.30
2019-05-02T00:45:14.173Z,95.40
2019-05-02T00:48:41.401Z,95.40
2019-05-02T00:51:46.458Z,95.80
2019-05-02T00:54:54.995Z,95.60
2019-05-02T00:57:58.182Z,95.50
2019-05-02T01:01:37.538Z,95.40
2019-05-02T01:04:44.004Z,95.40
2019-05-02T01:07:49.097Z,95.50
2019-05-02T01:10:56.964Z,95.50
2019-05-02T01:14:00.906Z,95.60
2019-05-02T01:17:05.981Z,95.60
2019-05-02T01:20:11.489Z,95.60
2019-05-02T01:23:16.513Z,95.70
2019-05-02T01:26:24.149Z,95.70
2019-05-02T01:29:48.970Z,95.80
2019-05-02T01:33:01.304Z,96.00
2019-05-02T01:36:11.886Z,96.10
2019-05-02T01:39:16.965Z,96.30
2019-05-02T01:42:22.006Z,96.40
2019-05-02T01:45:26.997Z,96.60
2019-05-02T01:48:32.098Z,96.70
2019-05-02T01:51:41.778Z,96.90
2019-05-02T01:54:45.726Z,97.00
2019-05-02T01:57:50.666Z,97.40
2019-05-02T02:00:55.750Z,97.50
2019-05-02T02:04:00.762Z,97.30
2019-05-02T02:07:05.851Z,97.40
2019-05-02T02:10:15.054Z,97.40
2019-05-02T02:13:17.666Z,97.60
2019-05-02T02:16:22.661Z,97.60
2019-05-02T02:19:34.696Z,97.70
2019-05-02T02:22:56.278Z,97.70
2019-05-02T02:26:06.827Z,97.70
2019-05-02T02:29:11.018Z,97.80
2019-05-02T02:32:20.160Z,97.90
2019-05-02T02:35:22.842Z,97.90
2019-05-02T02:38:33.516Z,98.00
2019-05-02T02:41:34.639Z,98.00
2019-05-02T02:44:51.707Z,97.90
2019-05-02T02:47:59.799Z,97.90
2019-05-02T02:51:03.520Z,97.90
2019-05-02T02:54:08.607Z,97.90
2019-05-02T02:57:25.432Z,97.90
2019-05-02T03:00:20.389Z,97.90
2019-05-02T03:03:28.158Z,97.80
2019-05-02T03:06:32.402Z,97.80
2019-05-02T03:09:37.510Z,97.90
2019-05-02T03:13:04.446Z,97.80
2019-05-02T03:16:13.468Z,97.80
2019-05-02T03:19:21.264Z,97.80
2019-05-02T03:22:25.346Z,97.80
2019-05-02T03:25:49.306Z,98.00
2019-05-02T03:28:37.427Z,97.60
2019-05-02T03:31:42.469Z,97.50
2019-05-02T03:34:52.858Z,97.50
2019-05-02T03:37:54.378Z,97.50
2019-05-02T03:40:59.963Z,97.60
2019-05-02T03:44:11.277Z,97.70
2019-05-02T03:47:11.843Z,98.30
2019-05-02T03:50:16.929Z,98.40
2019-05-02T03:53:25.387Z,98.40
2019-05-02T03:56:29.845Z,98.50
2019-05-02T03:59:38.853Z,98.50
2019-05-02T04:02:41.880Z,98.60
2019-05-02T04:05:47.631Z,98.80
2019-05-02T04:08:58.859Z,98.60
2019-05-02T04:11:59.868Z,98.60
2019-05-02T04:15:09.399Z,98.60
2019-05-02T04:18:15.371Z,98.70
2019-05-02T04:21:24.422Z,98.50
2019-05-02T04:24:26.280Z,98.60
2019-05-02T04:27:34.053Z,98.50
2019-05-02T04:30:38.107Z,98.60
2019-05-02T04:33:43.366Z,98.50
2019-05-02T04:37:00.243Z,98.40
2019-05-02T04:40:00.697Z,98.30
2019-05-02T04:43:08.238Z,98.10
2019-05-02T04:46:17.939Z,98.10
2019-05-02T04:49:20.116Z,98.00
2019-05-02T04:52:22.335Z,97.90
2019-05-02T04:55:32.377Z,97.80
2019-05-02T04:58:37.181Z,97.80
2019-05-02T05:01:49.202Z,97.90
2019-05-02T05:04:49.484Z,97.90
2019-05-02T05:07:54.066Z,97.90
2019-05-02T05:10:59.061Z,97.90
2019-05-02T05:14:04.161Z,97.40
2019-05-02T05:17:09.178Z,97.30
2019-05-02T05:20:15.783Z,97.20
2019-05-02T05:23:34.676Z,97.20
2019-05-02T05:26:43.076Z,97.20
2019-05-02T05:29:48.588Z,97.00
2019-05-02T05:32:53.843Z,97.00
2019-05-02T05:35:58.938Z,97.00
2019-05-02T05:39:08.578Z,96.90
2019-05-02T05:42:12.346Z,96.80
2019-05-02T05:45:17.518Z,96.70
2019-05-02T05:48:22.514Z,96.60
2019-05-02T05:51:28.798Z,96.40
2019-05-02T05:54:38.368Z,96.30
2019-05-02T05:57:40.440Z,95.80
2019-05-02T06:00:45.869Z,95.30
2019-05-02T06:03:52.180Z,94.90
2019-05-02T06:07:01.646Z,94.70
2019-05-02T06:10:07.819Z,94.70
2019-05-02T06:13:12.821Z,94.50
2019-05-02T06:16:17.927Z,94.20
2019-05-02T06:19:23.496Z,93.60
2019-05-02T06:22:28.570Z,93.40
2019-05-02T06:25:36.405Z,93.10
2019-05-02T06:28:41.513Z,92.90
2019-05-02T06:31:46.993Z,92.60
2019-05-02T06:34:52.005Z,92.50
2019-05-02T06:37:56.970Z,92.40
2019-05-02T06:41:02.062Z,92.30
2019-05-02T06:44:10.238Z,92.00
2019-05-02T06:47:14.937Z,91.70
2019-05-02T06:50:20.442Z,91.40
2019-05-02T06:53:25.578Z,91.30
2019-05-02T06:56:31.109Z,91.00
2019-05-02T06:59:37.212Z,90.70
2019-05-02T07:02:42.382Z,90.70
2019-05-02T07:05:49.174Z,90.60
2019-05-02T07:08:54.991Z,90.30
2019-05-02T07:12:01.580Z,90.00
2019-05-02T07:15:11.585Z,89.70
2019-05-02T07:18:17.643Z,90.00
2019-05-02T07:21:23.658Z,88.30
2019-05-02T07:24:30.582Z,88.10
2019-05-02T07:27:35.908Z,88.00
2019-05-02T07:30:41.163Z,86.10
2019-05-02T07:33:46.317Z,85.10
2019-05-02T07:36:51.326Z,84.10
2019-05-02T07:39:56.420Z,84.10
2019-05-02T07:43:01.461Z,82.20
2019-05-02T07:46:06.548Z,80.70
2019-05-02T07:49:11.639Z,80.30
2019-05-02T07:52:16.703Z,79.30
2019-05-02T07:55:21.732Z,79.10
2019-05-02T07:58:26.770Z,78.00
2019-05-02T08:01:31.787Z,77.20
2019-05-02T08:04:36.883Z,75.40
2019-05-02T08:07:41.845Z,74.60
2019-05-02T08:10:47.026Z,74.10
2019-05-02T08:13:55.638Z,74.60
2019-05-02T08:17:05.368Z,75.70
2019-05-02T08:20:08.517Z,75.90
2019-05-02T08:23:13.626Z,76.50
2019-05-02T08:26:21.772Z,77.00
2019-05-02T08:29:28.890Z,77.10
2019-05-02T08:32:32.134Z,77.20
2019-05-02T08:35:37.426Z,75.70
2019-05-02T08:38:42.493Z,75.30
2019-05-02T08:41:51.228Z,75.50
2019-05-02T08:44:56.460Z,75.70
2019-05-02T08:48:05.123Z,75.30
2019-05-02T08:51:08.720Z,74.80
2019-05-02T08:54:14.257Z,74.00
2019-05-02T08:57:19.711Z,74.10
2019-05-02T09:00:25.250Z,73.90
2019-05-02T09:03:38.908Z,74.00
2019-05-02T09:06:37.477Z,73.90
2019-05-02T09:09:42.457Z,73.80
2019-05-02T09:12:47.406Z,73.40
2019-05-02T09:15:54.297Z,72.40
2019-05-02T09:18:59.125Z,72.00
2019-05-02T09:22:07.643Z,72.00
2019-05-02T09:25:12.591Z,70.00
2019-05-02T09:28:22.654Z,68.80
2019-05-02T09:31:24.694Z,68.70
2019-05-02T09:34:31.732Z,68.80
2019-05-02T09:37:36.447Z,68.60
2019-05-02T09:40:42.611Z,67.30
2019-05-02T09:43:47.990Z,68.10
2019-05-02T09:46:56.879Z,68.70
2019-05-02T09:50:12.923Z,66.20
2019-05-02T09:53:20.540Z,66.30
2019-05-02T09:56:24.890Z,65.30
2019-05-02T09:59:33.211Z,66.00
2019-05-02T10:02:38.409Z,63.40
2019-05-02T10:05:43.524Z,62.10
2019-05-02T10:08:48.619Z,60.60
2019-05-02T10:11:53.665Z,60.50
2019-05-02T10:14:58.699Z,59.80
2019-05-02T10:18:10.964Z,61.10
2019-05-02T10:21:13.578Z,61.20
2019-05-02T10:24:19.123Z,59.00
2019-05-02T10:27:24.222Z,59.40
2019-05-02T10:30:35.234Z,58.60
2019-05-02T10:33:38.460Z,56.80
2019-05-02T10:36:45.507Z,56.00
2019-05-02T10:39:52.162Z,57.20
2019-05-02T10:42:57.024Z,58.30
2019-05-02T10:46:27.834Z,57.60
2019-05-02T10:49:40.011Z,56.60
2019-05-02T10:52:44.958Z,55.20
2019-05-02T10:55:52.223Z,55.70
2019-05-02T10:58:56.767Z,53.70
2019-05-02T11:02:19.479Z,54.20
2019-05-02T11:05:26.638Z,54.50
2019-05-02T11:08:32.129Z,55.70
2019-05-02T11:11:37.352Z,56.50
2019-05-02T11:14:48.486Z,53.90
2019-05-02T11:17:53.597Z,55.10
2019-05-02T11:20:59.036Z,56.10
2019-05-02T11:24:05.513Z,57.20
2019-05-02T11:27:12.681Z,55.60
2019-05-02T11:30:22.420Z,56.20
2019-05-02T11:33:24.404Z,55.20
2019-05-02T11:36:29.445Z,53.80
2019-05-02T11:39:44.279Z,54.00
2019-05-02T11:42:41.667Z,54.40
2019-05-02T11:45:46.859Z,55.90
2019-05-02T11:48:56.349Z,57.10
2019-05-02T11:52:01.556Z,58.30
2019-05-02T11:55:05.756Z,59.00
2019-05-02T11:58:12.497Z,57.50
2019-05-02T12:01:19.757Z,56.20
2019-05-02T12:04:24.420Z,57.10
2019-05-02T12:07:29.460Z,57.60
2019-05-02T12:10:36.623Z,59.60
2019-05-02T12:13:42.798Z,59.80
2019-05-02T12:16:47.940Z,59.80
2019-05-02T12:19:52.958Z,59.60
2019-05-02T12:22:58.014Z,59.00
2019-05-02T12:26:03.174Z,56.30
2019-05-02T12:29:08.126Z,54.60
2019-05-02T12:32:15.513Z,52.90
2019-05-02T12:35:19.937Z,52.40
2019-05-02T12:38:25.111Z,54.70
2019-05-02T12:41:32.901Z,55.20
2019-05-02T12:44:37.157Z,55.70
2019-05-02T12:47:42.776Z,55.30
2019-05-02T12:50:48.069Z,54.70
2019-05-02T12:53:53.055Z,52.80
2019-05-02T12:56:58.073Z,51.70
2019-05-02T13:00:03.790Z,49.10
2019-05-02T13:03:26.858Z,47.30
2019-05-02T13:06:32.748Z,46.20
2019-05-02T13:09:38.003Z,46.40
2019-05-02T13:12:43.886Z,47.20
2019-05-02T13:15:49.056Z,47.00
2019-05-02T13:18:57.372Z,47.90
2019-05-02T13:22:29.018Z,49.20
2019-05-02T13:25:36.954Z,49.70
2019-05-02T13:28:43.668Z,49.40
2019-05-02T13:31:56.905Z,48.70
2019-05-02T13:35:24.538Z,48.90
2019-05-02T13:38:29.721Z,49.60
2019-05-02T13:41:34.922Z,49.20
2019-05-02T13:44:47.182Z,48.90
2019-05-02T13:47:52.355Z,50.60
2019-05-02T13:50:57.592Z,52.70
2019-05-02T13:54:02.775Z,53.90
2019-05-02T13:57:07.874Z,53.80
2019-05-02T14:00:15.073Z,53.40
2019-05-02T14:03:20.267Z,52.80
2019-05-02T14:06:29.879Z,53.00
2019-05-02T14:10:06.470Z,53.60
2019-05-02T14:13:12.505Z,51.80
2019-05-02T14:16:17.542Z,51.00
2019-05-02T14:19:22.640Z,52.20
2019-05-02T14:22:29.307Z,53.30
2019-05-02T14:25:34.321Z,53.30
2019-05-02T14:28:39.367Z,53.50
2019-05-02T14:31:44.386Z,53.80
2019-05-02T14:34:55.708Z,53.90
2019-05-02T14:38:14.053Z,54.60
2019-05-02T14:41:30.093Z,56.30
2019-05-02T14:45:03.213Z,57.50
2019-05-02T14:47:42.262Z,58.30
2019-05-02T14:50:47.073Z,57.50
2019-05-02T14:53:52.746Z,56.40
2019-05-02T14:57:04.017Z,55.90
2019-05-02T15:00:09.575Z,56.30
2019-05-02T15:03:14.614Z,56.90
2019-05-02T15:06:19.838Z,57.30
2019-05-02T15:09:26.901Z,56.40
2019-05-02T15:12:32.521Z,56.10
2019-05-02T15:15:41.056Z,55.90
2019-05-02T15:18:47.515Z,55.60
2019-05-02T15:21:52.515Z,56.20
2019-05-02T15:24:57.941Z,56.70
2019-05-02T15:28:02.985Z,57.50
2019-05-02T15:31:11.983Z,56.70
2019-05-02T15:34:23.994Z,56.50
2019-05-02T15:37:29.804Z,56.40
2019-05-02T15:40:43.509Z,56.10
2019-05-02T15:43:44.270Z,55.30
2019-05-02T15:46:48.517Z,56.10
2019-05-02T15:49:53.507Z,56.10
2019-05-02T15:53:09.923Z,56.10
2019-05-02T15:56:19.742Z,56.60
2019-05-02T15:59:32.688Z,56.20
2019-05-02T16:02:39.338Z,55.90
2019-05-02T16:05:45.249Z,55.50
2019-05-02T16:08:52.010Z,54.60
2019-05-02T16:11:57.306Z,53.80
2019-05-02T16:15:04.988Z,53.80
2019-05-02T16:18:09.345Z,53.30
2019-05-02T16:21:27.026Z,53.30
2019-05-02T16:24:29.221Z,52.70
2019-05-02T16:27:45.321Z,53.20
2019-05-02T16:30:52.554Z,53.50
2019-05-02T16:33:57.791Z,54.80
2019-05-02T16:37:13.224Z,55.90
2019-05-02T16:40:22.057Z,56.60
2019-05-02T16:43:25.459Z,57.00
2019-05-02T16:46:32.237Z,57.30
2019-05-02T16:49:38.213Z,57.00
2019-05-02T16:52:47.217Z,57.80
2019-05-02T16:55:50.015Z,57.90
2019-05-02T16:58:55.021Z,58.00
2019-05-02T17:02:07.714Z,57.70
2019-05-02T17:05:09.253Z,58.50
2019-05-02T17:08:30.478Z,59.00
2019-05-02T17:11:38.934Z,59.90
2019-05-02T17:14:52.621Z,61.00
2019-05-02T17:17:54.430Z,61.80
2019-05-02T17:21:01.582Z,62.40
2019-05-02T17:24:06.560Z,62.00
2019-05-02T17:27:12.966Z,61.60
2019-05-02T17:30:18.586Z,61.80
2019-05-02T17:33:23.690Z,62.80
2019-05-02T17:36:30.090Z,61.90
2019-05-02T17:39:37.379Z,62.10
2019-05-02T17:42:44.442Z,62.00
2019-05-02T17:45:49.174Z,62.20
2019-05-02T17:48:54.323Z,62.40
2019-05-02T17:52:26.796Z,62.90
2019-05-02T17:55:34.550Z,63.10
2019-05-02T17:58:35.238Z,63.30
2019-05-02T18:01:41.884Z,63.00
2019-05-02T18:04:52.136Z,62.70
2019-05-02T18:07:53.732Z,62.00
2019-05-02T18:11:02.137Z,61.90
2019-05-02T18:14:16.186Z,61.10
2019-05-02T18:17:12.810Z,60.70
2019-05-02T18:20:18.294Z,60.80
2019-05-02T18:23:27.385Z,60.00
2019-05-02T18:26:31.785Z,60.30
2019-05-02T18:29:42.554Z,60.40
2019-05-02T18:32:43.505Z,60.80
2019-05-02T18:35:48.712Z,61.00
2019-05-02T18:39:00.246Z,61.00
2019-05-02T18:42:00.708Z,61.10
2019-05-02T18:45:07.338Z,61.80
2019-05-02T18:48:12.797Z,61.90
2019-05-02T18:51:19.077Z,61.20
2019-05-02T18:54:24.603Z,61.20
2019-05-02T18:57:30.154Z,61.40
2019-05-02T19:00:39.540Z,61.30
2019-05-02T19:03:47.123Z,61.50
2019-05-02T19:06:51.914Z,61.80
2019-05-02T19:09:58.929Z,61.60
2019-05-02T19:13:06.125Z,61.30
2019-05-02T19:16:12.987Z,61.40
2019-05-02T19:19:18.395Z,61.00
2019-05-02T19:22:23.531Z,60.90
2019-05-02T19:25:28.707Z,60.20
2019-05-02T19:28:39.194Z,59.60
2019-05-02T19:31:49.243Z,59.10
2019-05-02T19:34:57.798Z,59.70
2019-05-02T19:38:02.583Z,59.90
2019-05-02T19:41:09.314Z,59.40
2019-05-02T19:44:15.357Z,58.80
2019-05-02T19:47:22.006Z,58.40
2019-05-02T19:50:41.652Z,58.40
2019-05-02T19:53:43.339Z,58.10
2019-05-02T19:56:48.757Z,58.30
2019-05-02T19:59:57.063Z,58.20
2019-05-02T20:03:01.768Z,58.10
2019-05-02T20:06:07.683Z,60.30
2019-05-02T20:09:13.411Z,63.60
2019-05-02T20:12:19.075Z,65.60
2019-05-02T20:15:26.969Z,67.70
2019-05-02T20:18:36.748Z,70.50
2019-05-02T20:22:14.693Z,72.80
2019-05-02T20:25:19.750Z,74.70
2019-05-02T20:28:24.801Z,76.10
2019-05-02T20:31:29.767Z,77.00
2019-05-02T20:34:34.803Z,77.20
2019-05-02T20:37:41.891Z,77.40
2019-05-02T20:40:46.678Z,78.00
2019-05-02T20:43:52.182Z,78.40
2019-05-02T20:46:57.217Z,78.90
2019-05-02T20:50:02.717Z,79.30
2019-05-02T20:53:11.984Z,79.60
2019-05-02T20:56:16.054Z,79.10
2019-05-02T20:59:21.840Z,78.30
2019-05-02T21:02:27.177Z,78.70
2019-05-02T21:05:42.811Z,79.80
2019-05-02T21:09:25.626Z,81.30
2019-05-02T21:12:30.792Z,82.50
2019-05-02T21:15:36.024Z,83.50
2019-05-02T21:18:42.267Z,84.60
2019-05-02T21:21:47.791Z,85.50
2019-05-02T21:24:53.022Z,86.30
2019-05-02T21:27:58.168Z,87.10
2019-05-02T21:31:03.169Z,87.70
2019-05-02T21:34:08.235Z,88.40
2019-05-02T21:37:14.270Z,89.10
2019-05-02T21:40:19.362Z,90.30
2019-05-02T21:43:24.449Z,90.20
2019-05-02T21:46:29.390Z,90.40
2019-05-02T21:49:52.879Z,90.50
2019-05-02T21:53:22.086Z,90.70
2019-05-02T21:56:37.405Z,91.00
2019-05-02T21:59:42.506Z,91.20
2019-05-02T22:02:47.681Z,91.50
2019-05-02T22:05:52.782Z,92.00
2019-05-02T22:08:57.881Z,91.90
2019-05-02T22:12:02.973Z,92.20
2019-05-02T22:15:08.285Z,92.80
2019-05-02T22:18:13.384Z,92.90
2019-05-02T22:21:18.485Z,93.60
2019-05-02T22:24:23.581Z,93.90
2019-05-02T22:27:28.622Z,94.20
2019-05-02T22:30:33.710Z,94.30
2019-05-02T22:33:38.834Z,94.60
2019-05-02T22:36:44.044Z,94.90
2019-05-02T22:39:54.862Z,95.20
2019-05-02T22:43:01.948Z,95.40
2019-05-02T22:46:08.330Z,95.70
2019-05-02T22:49:15.246Z,96.00
2019-05-02T22:52:21.818Z,96.50
2019-05-02T22:55:27.133Z,98.00
2019-05-02T22:58:32.675Z,99.90
2019-05-02T23:01:37.894Z,99.90
2019-05-02T23:04:42.851Z,99.90
2019-05-02T23:07:47.895Z,99.90
2019-05-02T23:10:53.057Z,99.90
2019-05-02T23:13:58.198Z,99.90
2019-05-02T23:17:03.306Z,99.90
2019-05-02T23:20:08.406Z,99.90
2019-05-02T23:23:13.594Z,99.90
2019-05-02T23:26:27.214Z,99.90
2019-05-02T23:29:32.334Z,99.90
2019-05-02T23:32:37.286Z,99.90
2019-05-02T23:35:42.983Z,99.90
2019-05-02T23:38:48.177Z,99.90
2019-05-02T23:41:53.307Z,99.90
2019-05-02T23:44:58.327Z,99.90
2019-05-02T23:48:03.634Z,99.90
2019-05-02T23:51:08.655Z,99.90
2019-05-02T23:54:13.741Z,99.90
2019-05-02T23:57:18.769Z,99.90
